• Join FlightAware (Why Join?)
  • Login
  • US Flag 
10:45AM EDT


 

Airport Tracker/Info


-or-


 

Live Flight TrackerFlight Track Log ✈ VNR104 ✈ 08-May-2013 ✈ KSTP - KDAL

Flight Track Log - Related Links

Times and Time Zones

All times are in EDT time to prevent confusion due to time zone crossing. See the VNR104 flight status page for this flight to view local times or setup timezone preferences in your user account.

Time Position Orientation Groundspeed Altitude Reporting Facility
EDT Latitude Longitude Course Direction KTS MPH feet Rate Location/Type
10:33PM 44.9958 -93.0622 10° North 143 165 4,500  Level Minneapolis Center
10:34PM 45.0367 -93.0803 343° North 173 199 6,300 1,920 Climbing Minneapolis Center
10:35PM 45.0128 -93.1436 242° Southwest 195 224 8,500 2,220 Climbing Minneapolis Center
10:36PM 44.9667 -93.1878 214° Southwest 205 236 10,900 2,280 Climbing Minneapolis Center
10:37PM 44.9186 -93.2286 211° Southwest 205 236 13,200 2,100 Climbing Minneapolis Center
10:38PM 44.8553 -93.2792 210° Southwest 217 250 15,300 1,980 Climbing Minneapolis Center
10:39PM 44.8019 -93.3225 210° Southwest 230 265 17,300 1,920 Climbing Minneapolis Center
10:40PM 44.7461 -93.3667 209° Southwest 235 270 19,300 2,040 Climbing Minneapolis Center
10:41PM 44.6903 -93.4122 210° Southwest 236 272 21,600 1,980 Climbing Minneapolis Center
10:42PM 44.6461 -93.4483 210° Southwest 234 269 23,400 1,860 Climbing Minneapolis Center
10:43PM 44.5644 -93.5128 209° Southwest 240 276 25,500 1,800 Climbing Minneapolis Center
10:44PM 44.5019 -93.5631 210° Southwest 258 297 27,200 1,560 Climbing Minneapolis Center
10:45PM 44.4392 -93.6131 210° Southwest 260 299 28,700 1,260 Climbing Minneapolis Center
10:46PM 44.3761 -93.6631 210° Southwest 261 300 29,900 1,080 Climbing Minneapolis Center
10:47PM 44.3103 -93.7175 211° Southwest 273 314 31,000 1,080 Climbing Minneapolis Center
10:48PM 44.2442 -93.7700 210° Southwest 274 315 32,100 1,020 Climbing Minneapolis Center
10:50PM 44.1769 -93.8225 209° Southwest 275 316 33,200 900 Climbing Minneapolis Center
10:51PM 44.1111 -93.8753 210° Southwest 275 316 34,000 780 Climbing Minneapolis Center
10:52PM 44.0281 -93.9425 210° Southwest 285 328 34,800 720 Climbing Minneapolis Center
10:53PM 43.9586 -93.9969 209° Southwest 288 331 35,500 540 Climbing Minneapolis Center
10:54PM 43.8881 -94.0533 210° Southwest 291 335 36,000 240 Climbing Minneapolis Center
10:55PM 43.8153 -94.1111 210° Southwest 298 343 36,000  Level Minneapolis Center
10:56PM 43.7389 -94.1717 210° Southwest 310 357 36,000  Level Minneapolis Center
10:57PM 43.6744 -94.2197 208° Southwest 323 372 36,000  Level Minneapolis Center
10:58PM 43.5642 -94.2319 185° South 329 379 36,000  Level Minneapolis Center
10:59PM 43.4547 -94.2397 183° South 337 388 36,000  Level Minneapolis Center
11:00PM 43.3617 -94.2464 183° South 340 391 36,000  Level Minneapolis Center
11:01PM 43.2678 -94.2528 183° South 339 390 36,000  Level Minneapolis Center
11:02PM 43.1542 -94.2594 182° South 341 392 36,000  Level Minneapolis Center
11:03PM 43.0597 -94.2669 183° South 340 391 36,000  Level Minneapolis Center
11:04PM 42.9694 -94.2722 182° South 337 388 36,000  Level Minneapolis Center
11:05PM 42.8575 -94.2803 183° South 339 390 36,000  Level Minneapolis Center
11:06PM 42.7642 -94.2867 183° South 339 390 36,000  Level Minneapolis Center
11:07PM 42.6703 -94.2925 183° South 340 391 36,000  Level Minneapolis Center
11:08PM 42.5764 -94.3008 184° South 341 392 36,000  Level Minneapolis Center
11:09PM 42.4836 -94.3161 187° South 340 391 36,000  Level Minneapolis Center
11:10PM 42.3892 -94.3267 185° South 340 391 36,000  Level Minneapolis Center
11:11PM 42.2942 -94.3406 186° South 342 394 36,000  Level Minneapolis Center
11:12PM 42.1808 -94.3561 186° South 341 392 36,000  Level Minneapolis Center
11:13PM 42.0867 -94.3683 186° South 340 391 36,000  Level Minneapolis Center
11:14PM 41.9914 -94.3814 186° South 342 394 36,000  Level Minneapolis Center
11:15PM 41.8969 -94.3939 186° South 341 392 36,000  Level Minneapolis Center
11:17PM 41.7836 -94.4100 186° South 340 391 36,000  Level Minneapolis Center
11:18PM 41.6878 -94.4236 186° South 343 395 36,000  Level Minneapolis Center
11:19PM 41.5942 -94.4356 185° South 338 389 36,000  Level Minneapolis Center
11:20PM 41.5000 -94.4486 186° South 337 388 36,000  Level Minneapolis Center
11:21PM 41.4058 -94.4611 186° South 338 389 36,000  Level Minneapolis Center
11:22PM 41.2753 -94.4783 186° South 337 388 36,000  Level Minneapolis Center
11:23PM 41.1811 -94.4914 186° South 337 388 36,000  Level Minneapolis Center
11:24PM 41.0867 -94.5036 186° South 336 387 36,000  Level Minneapolis Center
11:25PM 40.9933 -94.5161 186° South 336 387 36,000  Level Minneapolis Center
11:26PM 40.8986 -94.5306 187° South 340 391 36,000  Level Minneapolis Center
11:27PM 40.8053 -94.5422 185° South 341 392 36,000  Level Minneapolis Center
11:28PM 40.7153 -94.5533 185° South 336 387 36,000  Level Minneapolis Center
11:29PM 40.6206 -94.5653 185° South 334 384 36,000  Level Minneapolis Center
11:30PM 40.5253 -94.5792 186° South 340 391 36,000  Level Minneapolis Center
11:31PM 40.4319 -94.5919 186° South 338 389 36,000 -480 Level Minneapolis Center
11:32PM 40.3361 -94.5883 178° South 350 403 35,100 -540 Descending Minneapolis Center
11:33PM 40.2336 -94.5003 147° Southeast 396 456 35,000 -60 Descending Minneapolis Center
11:34PM 40.1436 -94.4211 146° Southeast 394 453 35,000  Level Minneapolis Center
11:35PM 40.0989 -94.3797 145° Southeast 393 452 35,000  Level Kansas City Center
11:36PM 40.0128 -94.3017 145° Southeast 393 452 35,000  Level Kansas City Center
11:37PM 39.9258 -94.2258 146° Southeast 392 451 35,000  Level Kansas City Center
11:38PM 39.8244 -94.1364 146° Southeast 393 452 35,000  Level Kansas City Center
11:39PM 39.7372 -94.0594 146° Southeast 394 453 35,000  Level Kansas City Center
11:40PM 39.6500 -93.9839 146° Southeast 393 452 35,000  Level Kansas City Center
11:41PM 39.5625 -93.9061 146° Southeast 395 455 35,000 180 Level Kansas City Center
11:42PM 39.4597 -93.8156 146° Southeast 394 453 35,400 600 Climbing Kansas City Center
11:43PM 39.3761 -93.7436 146° Southeast 380 437 36,300 660 Climbing Kansas City Center
11:44PM 39.2942 -93.6706 145° Southeast 367 422 36,800 240 Climbing Kansas City Center
11:45PM 39.1981 -93.6136 155° Southeast 361 415 36,900 60 Climbing Kansas City Center
11:46PM 39.1122 -93.6386 193° South 330 380 37,000  Climbing Kansas City Center
11:47PM 39.0397 -93.6917 210° Southwest 317 365 37,000  Level Kansas City Center
11:48PM 38.9486 -93.7503 207° Southwest 326 375 37,000  Level Kansas City Center
11:49PM 38.8658 -93.7950 203° Southwest 333 383 37,000  Level Kansas City Center
11:50PM 38.7825 -93.8411 203° Southwest 337 388 37,000  Level Kansas City Center
11:51PM 38.6881 -93.8925 203° Southwest 332 382 37,100 480 Climbing Kansas City Center
11:52PM 38.6094 -93.9364 204° Southwest 324 373 38,000 420 Climbing Kansas City Center
11:53PM 38.5353 -93.9767 203° Southwest 308 354 38,000  Level Kansas City Center
11:54PM 38.4550 -94.0208 203° Southwest 311 358 38,000  Level Kansas City Center
11:55PM 38.3717 -94.0658 203° Southwest 319 367 38,000  Level Kansas City Center
11:56PM 38.2836 -94.1133 203° Southwest 326 375 38,000  Level Kansas City Center
11:57PM 38.1875 -94.1650 203° Southwest 330 380 38,000  Level Kansas City Center
11:58PM 38.1058 -94.2092 203° Southwest 333 383 38,000  Level Kansas City Center
11:59PM 38.0236 -94.2539 203° Southwest 334 384 38,000  Level Kansas City Center
12:00AM 37.9269 -94.3053 203° Southwest 334 384 38,000  Level Kansas City Center
12:01AM 37.8411 -94.3517 203° Southwest 335 386 38,000  Level Kansas City Center
12:02AM 37.7542 -94.3975 203° Southwest 337 388 38,000  Level Kansas City Center
12:03AM 37.6806 -94.4381 204° Southwest 335 386 38,000  Level Kansas City Center
12:04AM 37.5931 -94.4850 203° Southwest 337 388 38,000  Level Kansas City Center
12:05AM 37.5072 -94.5308 203° Southwest 335 386 38,000  Level Kansas City Center
12:06AM 37.4217 -94.5769 203° Southwest 333 383 38,000  Level Kansas City Center
12:07AM 37.3364 -94.6211 202° Southwest 332 382 38,000  Level Kansas City Center
12:08AM 37.2331 -94.6731 202° Southwest 331 381 38,000  Level Kansas City Center
12:09AM 37.1483 -94.7183 203° Southwest 331 381 38,000  Level Kansas City Center
12:10AM 37.0625 -94.7633 203° Southwest 331 381 38,000  Level Kansas City Center
12:11AM 36.9778 -94.8114 204° Southwest 333 383 38,000  Level Kansas City Center
12:12AM 36.8917 -94.8542 202° Southwest 333 383 38,000  Level Kansas City Center
12:13AM 36.8072 -94.8978 202° Southwest 329 379 38,000  Level Kansas City Center
12:14AM 36.7244 -94.9417 203° Southwest 325 374 38,000  Level Kansas City Center
12:15AM 36.6411 -94.9856 203° Southwest 323 372 38,000  Level Kansas City Center
12:16AM 36.5583 -95.0281 202° Southwest 322 371 38,000  Level Kansas City Center
12:17AM 36.4761 -95.0700 202° Southwest 320 368 38,000  Level Kansas City Center
12:18AM 36.4058 -95.1067 203° Southwest 317 365 38,000  Level Kansas City Center
12:19AM 36.3242 -95.1489 203° Southwest 318 366 38,000  Level Kansas City Center
12:20AM 36.2253 -95.1989 202° Southwest 319 367 38,000  Level Kansas City Center
12:21AM 36.1431 -95.2414 203° Southwest 320 368 38,000  Level Kansas City Center
12:22AM 36.0611 -95.2833 202° Southwest 320 368 38,000  Level Kansas City Center
12:23AM 35.9778 -95.3256 202° Southwest 321 369 38,000  Level Kansas City Center
12:24AM 35.8944 -95.3675 202° Southwest 321 369 38,000  Level Kansas City Center
12:25AM 35.8103 -95.4103 202° Southwest 323 372 38,000  Level Kansas City Center
12:26AM 35.7272 -95.4522 202° Southwest 323 372 38,000  Level Kansas City Center
12:27AM 35.6442 -95.4944 202° Southwest 322 371 38,000  Level Kansas City Center
12:28AM 35.5608 -95.5358 202° Southwest 322 371 38,000  Level Kansas City Center
12:29AM 35.4778 -95.5778 202° Southwest 323 372 38,000  Level Kansas City Center
12:30AM 35.3933 -95.6192 202° Southwest 325 374 38,000  Level Kansas City Center
12:31AM 35.3094 -95.6611 202° Southwest 325 374 38,000  Level Kansas City Center
12:32AM 35.2050 -95.7189 204° Southwest 329 379 38,000  Level Fort Worth Center
12:33AM 35.1222 -95.7586 201° Southwest 329 379 38,000  Level Fort Worth Center
12:34AM 35.0372 -95.8008 202° Southwest 329 379 38,000  Level Fort Worth Center
12:35AM 34.9522 -95.8431 202° Southwest 334 384 38,100  Climbing Fort Worth Center
12:36AM 34.8608 -95.8850 201° Southwest 341 392 38,000 -60 Descending Fort Worth Center
12:37AM 34.7717 -95.9297 202° Southwest 347 399 38,000  Level Fort Worth Center
12:38AM 34.6806 -95.9717 201° Southwest 347 399 38,000  Level Fort Worth Center
12:39AM 34.5911 -96.0161 202° Southwest 352 405 38,000 -360 Level Fort Worth Center
12:40AM 34.4978 -96.0603 201° Southwest 352 405 37,300 -1,380 Descending Fort Worth Center
12:41AM 34.4147 -96.1019 202° Southwest 346 398 35,300 -2,040 Descending Fort Worth Center
12:42AM 34.3278 -96.1461 203° Southwest 346 398 33,300 -2,040 Descending Fort Worth Center
12:43AM 34.2406 -96.1900 203° Southwest 341 392 31,300 -2,040 Descending Fort Worth Center
12:44AM 34.1533 -96.2314 201° Southwest 341 392 29,300 -2,100 Descending Fort Worth Center
12:45AM 34.0597 -96.2753 201° Southwest 346 398 27,200 -2,100 Descending Fort Worth Center
12:46AM 33.9683 -96.3217 203° Southwest 353 406 25,200 -2,040 Descending Fort Worth Center
12:47AM 33.8789 -96.3678 203° Southwest 353 406 23,200 -2,100 Descending Fort Worth Center
12:48AM 33.7978 -96.4036 200° South 331 381 21,100 -1,980 Descending Fort Worth Center
12:49AM 33.7208 -96.4394 201° Southwest 319 367 19,300 -2,040 Descending Fort Worth Center
12:50AM 33.6336 -96.4828 202° Southwest 314 361 17,100 -2,100 Descending Fort Worth Center
12:51AM 33.5608 -96.5161 201° Southwest 314 361 15,200 -2,040 Descending Fort Worth Center
12:52AM 33.4797 -96.5567 203° Southwest 304 350 13,100 -1,980 Descending Fort Worth Center
12:53AM 33.4069 -96.5897 201° Southwest 285 328 11,300 -1,200 Descending Fort Worth Center
12:54AM 33.3422 -96.6203 202° Southwest 280 322 10,700 -1,320 Descending Fort Worth Center
12:55AM 33.2717 -96.6606 206° Southwest 267 307 8,700 -1,680 Descending Fort Worth Center
12:56AM 33.2114 -96.7058 212° Southwest 260 299 7,400 -1,620 Descending Fort Worth Center
12:57AM 33.1511 -96.7486 211° Southwest 260 299 5,500 -1,680 Descending Fort Worth Center
12:58AM 33.0969 -96.7836 208° Southwest 254 292 4,100 -840 Descending Fort Worth Center
12:59AM 33.0500 -96.8167 211° Southwest 242 278 4,000 -780 Descending Dallas / Fort Worth TRACON
01:00AM 32.9833 -96.8500 203° Southwest 203 234 2,700 -1,020 Descending Dallas / Fort Worth TRACON
01:01AM 32.9500 -96.9000 232° Southwest 172 198 2,000 -480 Descending Dallas / Fort Worth TRACON
01:02AM 32.9167 -96.9000 180° South 98 113 1,800 -360 Descending Dallas / Fort Worth TRACON
01:03AM 32.8833 -96.8833 157° South 108 124 1,300 -480 Descending Dallas / Fort Worth TRACON
01:06AM 32.8471 -96.8518 209° Southwest  Level Estimated
01:13AM 32.8471 -96.8518 209° Southwest  Level Estimated